sensor_id;sensor_type;location;lat;lon;timestamp;P1;durP1;ratioP1;P2;durP2;ratioP2
5539;SDS011;2792;52.452;9.752;2022-12-18T00:02:01;12.43;;;7.88;;
5539;SDS011;2792;52.452;9.752;2022-12-18T00:04:28;11.77;;;7.20;;
5539;SDS011;2792;52.452;9.752;2022-12-18T00:06:55;13.40;;;7.82;;
5539;SDS011;2792;52.452;9.752;2022-12-18T00:09:22;10.93;;;7.10;;
5539;SDS011;2792;52.452;9.752;2022-12-18T00:11:48;13.57;;;9.00;;
5539;SDS011;2792;52.452;9.752;2022-12-18T00:14:16;14.82;;;7.47;;
5539;SDS011;2792;52.452;9.752;2022-12-18T00:16:43;14.57;;;7.40;;
5539;SDS011;2792;52.452;9.752;2022-12-18T00:19:10;10.27;;;7.25;;
5539;SDS011;2792;52.452;9.752;2022-12-18T00:21:41;10.25;;;7.25;;
5539;SDS011;2792;52.452;9.752;2022-12-18T00:24:08;11.35;;;8.18;;
5539;SDS011;2792;52.452;9.752;2022-12-18T00:26:35;15.07;;;8.00;;
5539;SDS011;2792;52.452;9.752;2022-12-18T00:29:03;13.80;;;8.80;;
5539;SDS011;2792;52.452;9.752;2022-12-18T00:31:32;13.65;;;9.32;;
5539;SDS011;2792;52.452;9.752;2022-12-18T00:33:59;10.32;;;7.40;;
5539;SDS011;2792;52.452;9.752;2022-12-18T00:36:27;14.05;;;8.90;;
5539;SDS011;2792;52.452;9.752;2022-12-18T00:38:54;20.08;;;8.82;;
5539;SDS011;2792;52.452;9.752;2022-12-18T00:41:22;12.32;;;7.82;;
5539;SDS011;2792;52.452;9.752;2022-12-18T00:44:07;12.68;;;7.43;;
5539;SDS011;2792;52.452;9.752;2022-12-18T00:46:37;11.73;;;7.30;;
5539;SDS011;2792;52.452;9.752;2022-12-18T00:49:03;12.75;;;7.60;;
5539;SDS011;2792;52.452;9.752;2022-12-18T00:51:30;12.48;;;8.55;;
5539;SDS011;2792;52.452;9.752;2022-12-18T00:53:57;11.48;;;7.80;;
5539;SDS011;2792;52.452;9.752;2022-12-18T00:56:23;12.10;;;7.90;;
5539;SDS011;2792;52.452;9.752;2022-12-18T00:58:50;10.65;;;7.05;;
5539;SDS011;2792;52.452;9.752;2022-12-18T01:01:17;10.45;;;6.90;;
5539;SDS011;2792;52.452;9.752;2022-12-18T01:03:46;11.15;;;6.65;;
5539;SDS011;2792;52.452;9.752;2022-12-18T01:06:12;12.65;;;7.32;;
5539;SDS011;2792;52.452;9.752;2022-12-18T01:08:40;11.70;;;7.72;;
5539;SDS011;2792;52.452;9.752;2022-12-18T01:11:07;14.00;;;6.85;;
5539;SDS011;2792;52.452;9.752;2022-12-18T01:13:34;11.82;;;7.20;;
5539;SDS011;2792;52.452;9.752;2022-12-18T01:16:00;13.27;;;7.35;;
5539;SDS011;2792;52.452;9.752;2022-12-18T01:18:27;14.82;;;8.02;;
5539;SDS011;2792;52.452;9.752;2022-12-18T01:20:55;10.85;;;7.60;;
5539;SDS011;2792;52.452;9.752;2022-12-18T01:23:21;11.27;;;7.47;;
5539;SDS011;2792;52.452;9.752;2022-12-18T01:25:54;14.40;;;7.28;;
5539;SDS011;2792;52.452;9.752;2022-12-18T01:28:20;18.08;;;7.80;;
5539;SDS011;2792;52.452;9.752;2022-12-18T01:30:47;10.38;;;7.22;;
5539;SDS011;2792;52.452;9.752;2022-12-18T01:33:14;11.10;;;7.70;;
5539;SDS011;2792;52.452;9.752;2022-12-18T01:35:40;11.23;;;7.32;;
5539;SDS011;2792;52.452;9.752;2022-12-18T01:38:09;12.65;;;7.90;;
5539;SDS011;2792;52.452;9.752;2022-12-18T01:40:35;13.00;;;6.63;;
5539;SDS011;2792;52.452;9.752;2022-12-18T01:43:02;9.93;;;6.70;;
5539;SDS011;2792;52.452;9.752;2022-12-18T01:45:30;10.95;;;7.15;;
5539;SDS011;2792;52.452;9.752;2022-12-18T01:47:58;11.05;;;7.75;;
5539;SDS011;2792;52.452;9.752;2022-12-18T01:50:27;10.65;;;6.78;;
5539;SDS011;2792;52.452;9.752;2022-12-18T01:52:56;10.38;;;6.97;;
5539;SDS011;2792;52.452;9.752;2022-12-18T01:55:26;13.43;;;7.30;;
5539;SDS011;2792;52.452;9.752;2022-12-18T01:57:55;11.50;;;7.10;;
5539;SDS011;2792;52.452;9.752;2022-12-18T02:00:23;9.45;;;6.65;;
5539;SDS011;2792;52.452;9.752;2022-12-18T02:02:50;10.70;;;6.68;;
5539;SDS011;2792;52.452;9.752;2022-12-18T02:05:17;10.77;;;6.57;;
5539;SDS011;2792;52.452;9.752;2022-12-18T02:07:51;13.75;;;7.18;;
5539;SDS011;2792;52.452;9.752;2022-12-18T02:10:27;12.13;;;6.57;;
5539;SDS011;2792;52.452;9.752;2022-12-18T02:13:01;10.85;;;7.45;;
5539;SDS011;2792;52.452;9.752;2022-12-18T02:15:32;10.80;;;6.32;;
5539;SDS011;2792;52.452;9.752;2022-12-18T02:18:03;10.23;;;6.80;;
5539;SDS011;2792;52.452;9.752;2022-12-18T02:20:33;16.17;;;6.95;;
5539;SDS011;2792;52.452;9.752;2022-12-18T02:23:04;11.43;;;6.60;;
5539;SDS011;2792;52.452;9.752;2022-12-18T02:25:43;14.93;;;6.35;;
5539;SDS011;2792;52.452;9.752;2022-12-18T02:28:31;10.60;;;7.13;;
5539;SDS011;2792;52.452;9.752;2022-12-18T02:31:01;9.52;;;6.47;;
5539;SDS011;2792;52.452;9.752;2022-12-18T02:33:29;14.63;;;7.45;;
5539;SDS011;2792;52.452;9.752;2022-12-18T02:35:56;10.23;;;7.07;;
5539;SDS011;2792;52.452;9.752;2022-12-18T02:38:23;12.93;;;7.43;;
5539;SDS011;2792;52.452;9.752;2022-12-18T02:40:51;10.80;;;7.45;;
5539;SDS011;2792;52.452;9.752;2022-12-18T02:43:20;12.60;;;7.68;;
5539;SDS011;2792;52.452;9.752;2022-12-18T02:45:48;10.50;;;7.68;;
5539;SDS011;2792;52.452;9.752;2022-12-18T02:48:16;9.70;;;6.60;;
5539;SDS011;2792;52.452;9.752;2022-12-18T02:50:44;14.23;;;7.43;;
5539;SDS011;2792;52.452;9.752;2022-12-18T02:53:16;11.82;;;7.88;;
5539;SDS011;2792;52.452;9.752;2022-12-18T02:55:48;8.18;;;6.22;;
5539;SDS011;2792;52.452;9.752;2022-12-18T02:58:26;12.15;;;6.88;;
5539;SDS011;2792;52.452;9.752;2022-12-18T03:00:58;13.63;;;7.75;;
5539;SDS011;2792;52.452;9.752;2022-12-18T03:03:27;11.15;;;7.40;;
5539;SDS011;2792;52.452;9.752;2022-12-18T03:05:56;11.80;;;7.60;;
5539;SDS011;2792;52.452;9.752;2022-12-18T03:08:28;11.05;;;7.18;;
5539;SDS011;2792;52.452;9.752;2022-12-18T03:10:58;11.73;;;7.55;;
5539;SDS011;2792;52.452;9.752;2022-12-18T03:13:32;11.00;;;6.85;;
5539;SDS011;2792;52.452;9.752;2022-12-18T03:15:59;14.05;;;7.45;;
5539;SDS011;2792;52.452;9.752;2022-12-18T03:18:29;11.10;;;7.60;;
5539;SDS011;2792;52.452;9.752;2022-12-18T03:20:58;15.70;;;8.20;;
5539;SDS011;2792;52.452;9.752;2022-12-18T03:23:29;12.00;;;7.80;;
5539;SDS011;2792;52.452;9.752;2022-12-18T03:25:59;11.45;;;7.22;;
5539;SDS011;2792;52.452;9.752;2022-12-18T03:28:28;10.57;;;7.22;;
5539;SDS011;2792;52.452;9.752;2022-12-18T03:30:58;8.85;;;7.20;;
5539;SDS011;2792;52.452;9.752;2022-12-18T03:33:27;12.60;;;7.03;;
5539;SDS011;2792;52.452;9.752;2022-12-18T03:35:55;11.85;;;7.40;;
5539;SDS011;2792;52.452;9.752;2022-12-18T03:38:22;10.70;;;7.30;;
5539;SDS011;2792;52.452;9.752;2022-12-18T03:40:51;10.60;;;7.35;;
5539;SDS011;2792;52.452;9.752;2022-12-18T03:43:26;9.02;;;7.00;;
5539;SDS011;2792;52.452;9.752;2022-12-18T03:46:00;9.80;;;6.80;;
5539;SDS011;2792;52.452;9.752;2022-12-18T03:48:29;13.23;;;7.30;;
5539;SDS011;2792;52.452;9.752;2022-12-18T03:51:01;10.20;;;6.88;;
5539;SDS011;2792;52.452;9.752;2022-12-18T03:53:33;8.10;;;6.15;;
5539;SDS011;2792;52.452;9.752;2022-12-18T03:56:03;13.07;;;7.25;;
5539;SDS011;2792;52.452;9.752;2022-12-18T03:58:31;9.10;;;6.75;;
5539;SDS011;2792;52.452;9.752;2022-12-18T04:01:00;8.52;;;6.32;;
5539;SDS011;2792;52.452;9.752;2022-12-18T04:03:27;8.88;;;6.90;;
5539;SDS011;2792;52.452;9.752;2022-12-18T04:05:55;10.90;;;6.50;;
5539;SDS011;2792;52.452;9.752;2022-12-18T04:08:21;8.10;;;6.45;;
5539;SDS011;2792;52.452;9.752;2022-12-18T04:10:48;9.38;;;7.60;;
5539;SDS011;2792;52.452;9.752;2022-12-18T04:13:21;11.63;;;7.28;;
5539;SDS011;2792;52.452;9.752;2022-12-18T04:15:48;11.77;;;7.28;;
5539;SDS011;2792;52.452;9.752;2022-12-18T04:18:16;8.90;;;6.90;;
5539;SDS011;2792;52.452;9.752;2022-12-18T04:20:42;11.32;;;7.13;;
5539;SDS011;2792;52.452;9.752;2022-12-18T04:23:09;9.82;;;6.50;;
5539;SDS011;2792;52.452;9.752;2022-12-18T04:25:35;10.52;;;6.80;;
5539;SDS011;2792;52.452;9.752;2022-12-18T04:28:02;9.27;;;6.70;;
5539;SDS011;2792;52.452;9.752;2022-12-18T04:30:28;11.13;;;7.88;;
5539;SDS011;2792;52.452;9.752;2022-12-18T04:32:55;8.05;;;6.50;;
5539;SDS011;2792;52.452;9.752;2022-12-18T04:35:23;11.30;;;6.90;;
5539;SDS011;2792;52.452;9.752;2022-12-18T04:37:49;11.40;;;7.72;;
5539;SDS011;2792;52.452;9.752;2022-12-18T04:40:16;9.60;;;7.32;;
5539;SDS011;2792;52.452;9.752;2022-12-18T04:42:42;12.40;;;8.05;;
5539;SDS011;2792;52.452;9.752;2022-12-18T04:45:09;9.88;;;7.10;;
5539;SDS011;2792;52.452;9.752;2022-12-18T04:47:36;11.52;;;6.57;;
5539;SDS011;2792;52.452;9.752;2022-12-18T04:50:02;15.30;;;7.70;;
5539;SDS011;2792;52.452;9.752;2022-12-18T04:52:34;11.57;;;6.55;;
5539;SDS011;2792;52.452;9.752;2022-12-18T04:55:01;9.55;;;5.93;;
5539;SDS011;2792;52.452;9.752;2022-12-18T04:57:28;13.13;;;7.57;;
5539;SDS011;2792;52.452;9.752;2022-12-18T04:59:54;9.80;;;6.47;;
5539;SDS011;2792;52.452;9.752;2022-12-18T05:02:21;5.90;;;5.05;;
5539;SDS011;2792;52.452;9.752;2022-12-18T05:04:47;9.05;;;6.75;;
5539;SDS011;2792;52.452;9.752;2022-12-18T05:07:14;10.05;;;6.75;;
5539;SDS011;2792;52.452;9.752;2022-12-18T05:09:42;12.13;;;6.53;;
5539;SDS011;2792;52.452;9.752;2022-12-18T05:12:08;12.80;;;7.65;;
5539;SDS011;2792;52.452;9.752;2022-12-18T05:14:35;13.15;;;7.80;;
5539;SDS011;2792;52.452;9.752;2022-12-18T05:17:01;14.88;;;7.28;;
5539;SDS011;2792;52.452;9.752;2022-12-18T05:19:28;11.88;;;7.47;;
5539;SDS011;2792;52.452;9.752;2022-12-18T05:21:54;11.93;;;6.85;;
5539;SDS011;2792;52.452;9.752;2022-12-18T05:24:21;11.05;;;8.07;;
5539;SDS011;2792;52.452;9.752;2022-12-18T05:26:48;11.20;;;6.80;;
5539;SDS011;2792;52.452;9.752;2022-12-18T05:29:16;13.88;;;7.72;;
5539;SDS011;2792;52.452;9.752;2022-12-18T05:31:42;9.38;;;6.90;;
5539;SDS011;2792;52.452;9.752;2022-12-18T05:34:09;10.52;;;6.47;;
5539;SDS011;2792;52.452;9.752;2022-12-18T05:36:35;9.90;;;6.82;;
5539;SDS011;2792;52.452;9.752;2022-12-18T05:39:02;14.43;;;7.60;;
5539;SDS011;2792;52.452;9.752;2022-12-18T05:41:28;10.00;;;6.43;;
5539;SDS011;2792;52.452;9.752;2022-12-18T05:43:56;10.27;;;6.85;;
5539;SDS011;2792;52.452;9.752;2022-12-18T05:46:23;10.85;;;7.60;;
5539;SDS011;2792;52.452;9.752;2022-12-18T05:48:50;13.48;;;7.25;;
5539;SDS011;2792;52.452;9.752;2022-12-18T05:51:18;10.20;;;7.25;;
5539;SDS011;2792;52.452;9.752;2022-12-18T05:53:46;12.40;;;7.65;;
5539;SDS011;2792;52.452;9.752;2022-12-18T05:56:13;12.05;;;7.40;;
5539;SDS011;2792;52.452;9.752;2022-12-18T05:58:41;13.43;;;7.80;;
5539;SDS011;2792;52.452;9.752;2022-12-18T06:01:10;8.85;;;6.28;;
5539;SDS011;2792;52.452;9.752;2022-12-18T06:03:38;10.20;;;7.13;;
5539;SDS011;2792;52.452;9.752;2022-12-18T06:06:11;10.40;;;6.50;;
5539;SDS011;2792;52.452;9.752;2022-12-18T06:08:39;10.10;;;6.72;;
5539;SDS011;2792;52.452;9.752;2022-12-18T06:11:05;12.48;;;6.63;;
5539;SDS011;2792;52.452;9.752;2022-12-18T06:13:32;16.10;;;7.53;;
5539;SDS011;2792;52.452;9.752;2022-12-18T06:16:01;10.18;;;7.30;;
5539;SDS011;2792;52.452;9.752;2022-12-18T06:18:29;17.42;;;7.40;;
5539;SDS011;2792;52.452;9.752;2022-12-18T06:20:56;8.48;;;6.25;;
5539;SDS011;2792;52.452;9.752;2022-12-18T06:23:23;9.63;;;6.82;;
5539;SDS011;2792;52.452;9.752;2022-12-18T06:25:49;10.05;;;6.43;;
5539;SDS011;2792;52.452;9.752;2022-12-18T06:28:16;9.77;;;6.95;;
5539;SDS011;2792;52.452;9.752;2022-12-18T06:30:45;14.13;;;6.18;;
5539;SDS011;2792;52.452;9.752;2022-12-18T06:33:20;8.25;;;6.25;;
5539;SDS011;2792;52.452;9.752;2022-12-18T06:35:48;9.45;;;6.00;;
5539;SDS011;2792;52.452;9.752;2022-12-18T06:38:14;9.32;;;6.13;;
5539;SDS011;2792;52.452;9.752;2022-12-18T06:40:41;12.55;;;6.40;;
5539;SDS011;2792;52.452;9.752;2022-12-18T06:43:08;15.18;;;6.07;;
5539;SDS011;2792;52.452;9.752;2022-12-18T06:45:34;7.82;;;5.20;;
5539;SDS011;2792;52.452;9.752;2022-12-18T06:48:01;10.85;;;6.35;;
5539;SDS011;2792;52.452;9.752;2022-12-18T06:50:27;9.65;;;6.20;;
5539;SDS011;2792;52.452;9.752;2022-12-18T06:52:55;9.45;;;5.80;;
5539;SDS011;2792;52.452;9.752;2022-12-18T06:55:22;11.07;;;6.28;;
5539;SDS011;2792;52.452;9.752;2022-12-18T06:57:48;8.98;;;5.93;;
5539;SDS011;2792;52.452;9.752;2022-12-18T07:00:15;9.70;;;5.78;;
5539;SDS011;2792;52.452;9.752;2022-12-18T07:02:41;13.77;;;6.57;;
5539;SDS011;2792;52.452;9.752;2022-12-18T07:05:08;9.25;;;5.20;;
5539;SDS011;2792;52.452;9.752;2022-12-18T07:07:35;7.57;;;5.53;;
5539;SDS011;2792;52.452;9.752;2022-12-18T07:10:03;12.98;;;5.88;;
5539;SDS011;2792;52.452;9.752;2022-12-18T07:12:30;9.60;;;6.78;;
5539;SDS011;2792;52.452;9.752;2022-12-18T07:14:56;10.50;;;5.78;;
5539;SDS011;2792;52.452;9.752;2022-12-18T07:17:23;7.60;;;5.80;;
5539;SDS011;2792;52.452;9.752;2022-12-18T07:19:49;8.10;;;5.45;;
5539;SDS011;2792;52.452;9.752;2022-12-18T07:22:16;9.82;;;5.38;;
5539;SDS011;2792;52.452;9.752;2022-12-18T07:24:42;10.35;;;5.63;;
5539;SDS011;2792;52.452;9.752;2022-12-18T07:27:10;13.23;;;6.93;;
5539;SDS011;2792;52.452;9.752;2022-12-18T07:29:37;10.13;;;6.13;;
5539;SDS011;2792;52.452;9.752;2022-12-18T07:32:04;9.35;;;6.68;;
5539;SDS011;2792;52.452;9.752;2022-12-18T07:34:32;8.43;;;5.75;;
5539;SDS011;2792;52.452;9.752;2022-12-18T07:36:58;8.65;;;5.18;;
5539;SDS011;2792;52.452;9.752;2022-12-18T07:39:25;11.35;;;6.32;;
5539;SDS011;2792;52.452;9.752;2022-12-18T07:41:51;7.85;;;5.97;;
5539;SDS011;2792;52.452;9.752;2022-12-18T07:44:33;10.93;;;6.18;;
5539;SDS011;2792;52.452;9.752;2022-12-18T07:46:59;7.30;;;6.32;;
5539;SDS011;2792;52.452;9.752;2022-12-18T07:49:26;7.90;;;6.30;;
5539;SDS011;2792;52.452;9.752;2022-12-18T07:51:53;8.93;;;5.75;;
5539;SDS011;2792;52.452;9.752;2022-12-18T07:54:21;14.02;;;7.55;;
5539;SDS011;2792;52.452;9.752;2022-12-18T07:56:47;11.77;;;7.57;;
5539;SDS011;2792;52.452;9.752;2022-12-18T07:59:14;7.82;;;6.38;;
5539;SDS011;2792;52.452;9.752;2022-12-18T08:01:42;11.43;;;7.40;;
5539;SDS011;2792;52.452;9.752;2022-12-18T08:04:08;11.70;;;6.90;;
5539;SDS011;2792;52.452;9.752;2022-12-18T08:06:35;8.95;;;6.65;;
5539;SDS011;2792;52.452;9.752;2022-12-18T08:09:01;9.48;;;6.55;;
5539;SDS011;2792;52.452;9.752;2022-12-18T08:11:28;10.07;;;6.53;;
5539;SDS011;2792;52.452;9.752;2022-12-18T08:13:55;11.65;;;6.72;;
5539;SDS011;2792;52.452;9.752;2022-12-18T08:16:23;12.63;;;6.85;;
5539;SDS011;2792;52.452;9.752;2022-12-18T08:18:52;12.10;;;7.30;;
5539;SDS011;2792;52.452;9.752;2022-12-18T08:21:20;9.38;;;7.13;;
5539;SDS011;2792;52.452;9.752;2022-12-18T08:23:48;12.60;;;7.53;;
5539;SDS011;2792;52.452;9.752;2022-12-18T08:26:14;7.05;;;6.35;;
5539;SDS011;2792;52.452;9.752;2022-12-18T08:28:41;11.35;;;7.30;;
5539;SDS011;2792;52.452;9.752;2022-12-18T08:31:08;12.13;;;7.30;;
5539;SDS011;2792;52.452;9.752;2022-12-18T08:33:35;8.75;;;6.43;;
5539;SDS011;2792;52.452;9.752;2022-12-18T08:36:05;7.03;;;6.32;;
5539;SDS011;2792;52.452;9.752;2022-12-18T08:38:32;10.43;;;6.40;;
5539;SDS011;2792;52.452;9.752;2022-12-18T08:40:59;8.57;;;7.28;;
5539;SDS011;2792;52.452;9.752;2022-12-18T08:43:26;10.18;;;7.38;;
5539;SDS011;2792;52.452;9.752;2022-12-18T08:46:10;9.93;;;7.40;;
5539;SDS011;2792;52.452;9.752;2022-12-18T08:48:41;11.52;;;7.70;;
5539;SDS011;2792;52.452;9.752;2022-12-18T08:51:18;9.27;;;6.47;;
5539;SDS011;2792;52.452;9.752;2022-12-18T08:53:48;14.18;;;6.90;;
5539;SDS011;2792;52.452;9.752;2022-12-18T08:56:14;9.38;;;7.05;;
5539;SDS011;2792;52.452;9.752;2022-12-18T08:58:41;12.65;;;9.68;;
5539;SDS011;2792;52.452;9.752;2022-12-18T09:01:09;11.73;;;8.10;;
5539;SDS011;2792;52.452;9.752;2022-12-18T09:03:36;18.65;;;8.32;;
5539;SDS011;2792;52.452;9.752;2022-12-18T09:06:04;11.75;;;8.38;;
5539;SDS011;2792;52.452;9.752;2022-12-18T09:08:35;13.65;;;8.30;;
5539;SDS011;2792;52.452;9.752;2022-12-18T09:11:02;18.73;;;8.57;;
5539;SDS011;2792;52.452;9.752;2022-12-18T09:13:29;14.68;;;9.52;;
5539;SDS011;2792;52.452;9.752;2022-12-18T09:15:55;15.77;;;10.95;;
5539;SDS011;2792;52.452;9.752;2022-12-18T09:18:23;19.40;;;11.50;;
5539;SDS011;2792;52.452;9.752;2022-12-18T09:20:50;20.88;;;12.30;;
5539;SDS011;2792;52.452;9.752;2022-12-18T09:23:20;14.60;;;9.23;;
5539;SDS011;2792;52.452;9.752;2022-12-18T09:25:51;12.68;;;8.13;;
5539;SDS011;2792;52.452;9.752;2022-12-18T09:28:18;10.38;;;7.47;;
5539;SDS011;2792;52.452;9.752;2022-12-18T09:30:45;13.27;;;8.18;;
5539;SDS011;2792;52.452;9.752;2022-12-18T09:33:14;13.13;;;8.05;;
5539;SDS011;2792;52.452;9.752;2022-12-18T09:35:41;11.45;;;7.65;;
5539;SDS011;2792;52.452;9.752;2022-12-18T09:38:09;10.60;;;8.10;;
5539;SDS011;2792;52.452;9.752;2022-12-18T09:40:40;10.20;;;8.10;;
5539;SDS011;2792;52.452;9.752;2022-12-18T09:43:12;10.38;;;6.63;;
5539;SDS011;2792;52.452;9.752;2022-12-18T09:45:46;14.15;;;7.45;;
5539;SDS011;2792;52.452;9.752;2022-12-18T09:50:44;13.98;;;9.30;;
5539;SDS011;2792;52.452;9.752;2022-12-18T09:53:12;10.70;;;7.70;;
5539;SDS011;2792;52.452;9.752;2022-12-18T09:55:42;15.25;;;10.48;;
5539;SDS011;2792;52.452;9.752;2022-12-18T09:58:13;12.13;;;8.30;;
5539;SDS011;2792;52.452;9.752;2022-12-18T10:00:43;18.65;;;8.15;;
5539;SDS011;2792;52.452;9.752;2022-12-18T10:03:11;12.60;;;9.60;;
5539;SDS011;2792;52.452;9.752;2022-12-18T10:05:40;9.73;;;8.13;;
5539;SDS011;2792;52.452;9.752;2022-12-18T10:08:13;13.20;;;9.27;;
5539;SDS011;2792;52.452;9.752;2022-12-18T10:10:46;11.77;;;7.93;;
5539;SDS011;2792;52.452;9.752;2022-12-18T10:13:21;12.52;;;8.45;;
5539;SDS011;2792;52.452;9.752;2022-12-18T10:15:56;14.93;;;8.20;;
5539;SDS011;2792;52.452;9.752;2022-12-18T10:18:31;8.30;;;7.22;;
5539;SDS011;2792;52.452;9.752;2022-12-18T10:21:04;18.73;;;7.65;;
5539;SDS011;2792;52.452;9.752;2022-12-18T10:23:37;8.45;;;6.20;;
5539;SDS011;2792;52.452;9.752;2022-12-18T10:26:06;7.63;;;6.70;;
5539;SDS011;2792;52.452;9.752;2022-12-18T10:28:35;10.48;;;6.53;;
5539;SDS011;2792;52.452;9.752;2022-12-18T10:31:05;8.82;;;5.88;;
5539;SDS011;2792;52.452;9.752;2022-12-18T10:33:32;9.00;;;7.50;;
5539;SDS011;2792;52.452;9.752;2022-12-18T10:35:59;9.43;;;6.90;;
5539;SDS011;2792;52.452;9.752;2022-12-18T10:38:27;11.23;;;7.75;;
5539;SDS011;2792;52.452;9.752;2022-12-18T10:40:56;10.68;;;6.05;;
5539;SDS011;2792;52.452;9.752;2022-12-18T10:43:25;8.88;;;6.38;;
5539;SDS011;2792;52.452;9.752;2022-12-18T10:46:04;10.52;;;6.47;;
5539;SDS011;2792;52.452;9.752;2022-12-18T10:48:40;6.35;;;5.43;;
5539;SDS011;2792;52.452;9.752;2022-12-18T10:51:19;9.50;;;6.13;;
5539;SDS011;2792;52.452;9.752;2022-12-18T10:53:50;9.60;;;6.97;;
5539;SDS011;2792;52.452;9.752;2022-12-18T10:56:19;7.13;;;5.90;;
5539;SDS011;2792;52.452;9.752;2022-12-18T10:58:47;11.90;;;5.80;;
5539;SDS011;2792;52.452;9.752;2022-12-18T11:01:23;10.95;;;5.75;;
5539;SDS011;2792;52.452;9.752;2022-12-18T11:03:59;8.10;;;5.80;;
5539;SDS011;2792;52.452;9.752;2022-12-18T11:06:27;8.27;;;5.60;;
5539;SDS011;2792;52.452;9.752;2022-12-18T11:08:57;7.97;;;6.40;;
5539;SDS011;2792;52.452;9.752;2022-12-18T11:11:24;9.13;;;6.03;;
5539;SDS011;2792;52.452;9.752;2022-12-18T11:13:54;9.82;;;6.70;;
5539;SDS011;2792;52.452;9.752;2022-12-18T11:16:26;7.28;;;5.55;;
5539;SDS011;2792;52.452;9.752;2022-12-18T11:18:54;7.80;;;6.03;;
5539;SDS011;2792;52.452;9.752;2022-12-18T11:21:20;7.30;;;5.95;;
5539;SDS011;2792;52.452;9.752;2022-12-18T11:23:49;7.15;;;6.13;;
5539;SDS011;2792;52.452;9.752;2022-12-18T11:26:16;9.75;;;6.15;;
5539;SDS011;2792;52.452;9.752;2022-12-18T11:28:44;6.35;;;5.60;;
5539;SDS011;2792;52.452;9.752;2022-12-18T11:34:02;10.65;;;6.70;;
5539;SDS011;2792;52.452;9.752;2022-12-18T11:36:33;11.48;;;8.00;;
5539;SDS011;2792;52.452;9.752;2022-12-18T11:39:04;13.15;;;7.32;;
5539;SDS011;2792;52.452;9.752;2022-12-18T11:41:37;10.20;;;7.35;;
5539;SDS011;2792;52.452;9.752;2022-12-18T11:44:26;9.85;;;6.28;;
5539;SDS011;2792;52.452;9.752;2022-12-18T11:46:56;12.07;;;7.13;;
5539;SDS011;2792;52.452;9.752;2022-12-18T11:49:26;11.48;;;7.85;;
5539;SDS011;2792;52.452;9.752;2022-12-18T11:51:58;11.30;;;6.05;;
5539;SDS011;2792;52.452;9.752;2022-12-18T11:54:27;9.27;;;6.70;;
5539;SDS011;2792;52.452;9.752;2022-12-18T11:56:55;6.82;;;5.72;;
5539;SDS011;2792;52.452;9.752;2022-12-18T11:59:27;7.57;;;5.80;;
5539;SDS011;2792;52.452;9.752;2022-12-18T12:02:02;9.75;;;5.78;;
5539;SDS011;2792;52.452;9.752;2022-12-18T12:04:48;14.05;;;7.18;;
5539;SDS011;2792;52.452;9.752;2022-12-18T12:07:26;13.20;;;7.28;;
5539;SDS011;2792;52.452;9.752;2022-12-18T12:10:01;18.10;;;8.38;;
5539;SDS011;2792;52.452;9.752;2022-12-18T12:12:35;16.60;;;7.15;;
5539;SDS011;2792;52.452;9.752;2022-12-18T12:15:18;15.30;;;7.40;;
5539;SDS011;2792;52.452;9.752;2022-12-18T12:17:54;15.60;;;6.50;;
5539;SDS011;2792;52.452;9.752;2022-12-18T12:20:25;13.93;;;7.05;;
5539;SDS011;2792;52.452;9.752;2022-12-18T12:22:58;15.80;;;7.35;;
5539;SDS011;2792;52.452;9.752;2022-12-18T12:25:29;14.15;;;6.18;;
5539;SDS011;2792;52.452;9.752;2022-12-18T12:28:13;13.17;;;6.80;;
5539;SDS011;2792;52.452;9.752;2022-12-18T12:30:48;8.97;;;6.60;;
5539;SDS011;2792;52.452;9.752;2022-12-18T12:33:24;12.57;;;7.65;;
5539;SDS011;2792;52.452;9.752;2022-12-18T12:36:00;11.65;;;7.95;;
5539;SDS011;2792;52.452;9.752;2022-12-18T12:38:40;12.35;;;7.95;;
5539;SDS011;2792;52.452;9.752;2022-12-18T12:41:12;13.00;;;8.18;;
5539;SDS011;2792;52.452;9.752;2022-12-18T12:43:53;15.85;;;9.65;;
5539;SDS011;2792;52.452;9.752;2022-12-18T12:46:21;14.45;;;9.35;;
5539;SDS011;2792;52.452;9.752;2022-12-18T12:48:50;13.98;;;8.07;;
5539;SDS011;2792;52.452;9.752;2022-12-18T12:51:20;5.75;;;5.07;;
5539;SDS011;2792;52.452;9.752;2022-12-18T12:53:50;10.70;;;6.35;;
5539;SDS011;2792;52.452;9.752;2022-12-18T12:56:34;10.24;;;6.11;;
5539;SDS011;2792;52.452;9.752;2022-12-18T12:59:04;10.25;;;7.55;;
5539;SDS011;2792;52.452;9.752;2022-12-18T13:01:38;11.93;;;7.30;;
5539;SDS011;2792;52.452;9.752;2022-12-18T13:04:10;11.57;;;8.23;;
5539;SDS011;2792;52.452;9.752;2022-12-18T13:06:44;8.75;;;7.28;;
5539;SDS011;2792;52.452;9.752;2022-12-18T13:09:13;11.90;;;7.63;;
5539;SDS011;2792;52.452;9.752;2022-12-18T13:11:40;11.43;;;8.40;;
5539;SDS011;2792;52.452;9.752;2022-12-18T13:14:27;15.32;;;8.10;;
5539;SDS011;2792;52.452;9.752;2022-12-18T13:20:02;14.95;;;8.35;;
5539;SDS011;2792;52.452;9.752;2022-12-18T13:22:33;11.13;;;7.30;;
5539;SDS011;2792;52.452;9.752;2022-12-18T13:25:01;11.50;;;7.72;;
5539;SDS011;2792;52.452;9.752;2022-12-18T13:30:42;17.17;;;11.52;;
5539;SDS011;2792;52.452;9.752;2022-12-18T13:36:14;19.60;;;9.90;;
5539;SDS011;2792;52.452;9.752;2022-12-18T13:38:44;14.77;;;9.27;;
5539;SDS011;2792;52.452;9.752;2022-12-18T13:41:23;15.15;;;9.73;;
5539;SDS011;2792;52.452;9.752;2022-12-18T13:43:51;16.27;;;10.45;;
5539;SDS011;2792;52.452;9.752;2022-12-18T13:46:23;17.42;;;10.60;;
5539;SDS011;2792;52.452;9.752;2022-12-18T13:48:53;18.20;;;11.57;;
5539;SDS011;2792;52.452;9.752;2022-12-18T13:51:22;19.70;;;11.45;;
5539;SDS011;2792;52.452;9.752;2022-12-18T13:53:51;16.95;;;10.40;;
5539;SDS011;2792;52.452;9.752;2022-12-18T13:56:21;16.42;;;10.77;;
5539;SDS011;2792;52.452;9.752;2022-12-18T13:59:03;17.15;;;10.27;;
5539;SDS011;2792;52.452;9.752;2022-12-18T14:01:41;16.80;;;11.02;;
5539;SDS011;2792;52.452;9.752;2022-12-18T14:04:09;16.98;;;10.73;;
5539;SDS011;2792;52.452;9.752;2022-12-18T14:06:36;16.42;;;11.05;;
5539;SDS011;2792;52.452;9.752;2022-12-18T14:09:04;21.40;;;12.38;;
5539;SDS011;2792;52.452;9.752;2022-12-18T14:11:31;24.15;;;15.45;;
5539;SDS011;2792;52.452;9.752;2022-12-18T14:13:58;19.35;;;12.57;;
5539;SDS011;2792;52.452;9.752;2022-12-18T14:16:25;20.50;;;11.32;;
5539;SDS011;2792;52.452;9.752;2022-12-18T14:18:52;19.45;;;11.65;;
5539;SDS011;2792;52.452;9.752;2022-12-18T14:21:21;19.92;;;10.95;;
5539;SDS011;2792;52.452;9.752;2022-12-18T14:23:48;14.13;;;9.98;;
5539;SDS011;2792;52.452;9.752;2022-12-18T14:26:24;15.70;;;10.43;;
5539;SDS011;2792;52.452;9.752;2022-12-18T14:28:53;16.27;;;9.98;;
5539;SDS011;2792;52.452;9.752;2022-12-18T14:31:21;16.50;;;9.27;;
5539;SDS011;2792;52.452;9.752;2022-12-18T14:33:49;16.33;;;10.30;;
5539;SDS011;2792;52.452;9.752;2022-12-18T14:36:16;18.15;;;10.15;;
5539;SDS011;2792;52.452;9.752;2022-12-18T14:38:47;14.60;;;9.77;;
5539;SDS011;2792;52.452;9.752;2022-12-18T14:41:16;15.07;;;9.65;;
5539;SDS011;2792;52.452;9.752;2022-12-18T14:43:45;21.55;;;9.57;;
5539;SDS011;2792;52.452;9.752;2022-12-18T14:46:26;14.88;;;10.35;;
5539;SDS011;2792;52.452;9.752;2022-12-18T14:48:54;15.95;;;10.20;;
5539;SDS011;2792;52.452;9.752;2022-12-18T14:51:22;16.00;;;10.05;;
5539;SDS011;2792;52.452;9.752;2022-12-18T14:53:53;18.80;;;10.52;;
5539;SDS011;2792;52.452;9.752;2022-12-18T14:56:21;14.52;;;9.55;;
5539;SDS011;2792;52.452;9.752;2022-12-18T14:58:50;16.10;;;10.05;;
5539;SDS011;2792;52.452;9.752;2022-12-18T15:01:19;15.20;;;9.93;;
5539;SDS011;2792;52.452;9.752;2022-12-18T15:03:47;15.75;;;9.00;;
5539;SDS011;2792;52.452;9.752;2022-12-18T15:06:15;16.42;;;10.70;;
5539;SDS011;2792;52.452;9.752;2022-12-18T15:08:42;15.45;;;9.75;;
5539;SDS011;2792;52.452;9.752;2022-12-18T15:11:23;14.70;;;10.10;;
5539;SDS011;2792;52.452;9.752;2022-12-18T15:13:53;14.60;;;10.68;;
5539;SDS011;2792;52.452;9.752;2022-12-18T15:16:20;13.63;;;10.07;;
5539;SDS011;2792;52.452;9.752;2022-12-18T15:18:47;14.90;;;10.10;;
5539;SDS011;2792;52.452;9.752;2022-12-18T15:21:16;17.83;;;11.73;;
5539;SDS011;2792;52.452;9.752;2022-12-18T15:23:46;14.48;;;10.85;;
5539;SDS011;2792;52.452;9.752;2022-12-18T15:26:14;15.60;;;10.65;;
5539;SDS011;2792;52.452;9.752;2022-12-18T15:28:43;14.10;;;9.85;;
5539;SDS011;2792;52.452;9.752;2022-12-18T15:31:23;16.08;;;9.52;;